sensor_id;sensor_type;location;lat;lon;timestamp;pressure;altitude;pressure_sealevel;temperature;humidity
3544;BME280;1786;52.870;9.578;2022-11-12T00:01:55;102181.22;;;18.05;45.66
3544;BME280;1786;52.870;9.578;2022-11-12T00:04:40;102175.44;;;18.11;46.01
3544;BME280;1786;52.870;9.578;2022-11-12T00:07:26;102174.47;;;18.12;45.80
3544;BME280;1786;52.870;9.578;2022-11-12T00:10:11;102180.16;;;18.08;45.92
3544;BME280;1786;52.870;9.578;2022-11-12T00:12:57;102177.91;;;18.02;46.09
3544;BME280;1786;52.870;9.578;2022-11-12T00:15:42;102176.50;;;17.96;46.17
3544;BME280;1786;52.870;9.578;2022-11-12T00:18:27;102181.00;;;17.95;46.22
3544;BME280;1786;52.870;9.578;2022-11-12T00:21:13;102177.56;;;17.93;46.17
3544;BME280;1786;52.870;9.578;2022-11-12T00:23:58;102184.09;;;17.89;46.14
3544;BME280;1786;52.870;9.578;2022-11-12T00:26:43;102179.38;;;17.93;46.46
3544;BME280;1786;52.870;9.578;2022-11-12T00:29:28;102180.38;;;17.92;46.17
3544;BME280;1786;52.870;9.578;2022-11-12T00:32:14;102177.56;;;17.93;46.11
3544;BME280;1786;52.870;9.578;2022-11-12T00:35:00;102176.94;;;17.90;46.50
3544;BME280;1786;52.870;9.578;2022-11-12T00:37:46;102180.66;;;17.87;46.13
3544;BME280;1786;52.870;9.578;2022-11-12T00:40:31;102187.84;;;17.87;45.99
3544;BME280;1786;52.870;9.578;2022-11-12T00:43:17;102186.25;;;17.84;45.88
3544;BME280;1786;52.870;9.578;2022-11-12T00:46:02;102202.38;;;17.83;45.98
3544;BME280;1786;52.870;9.578;2022-11-12T00:48:47;102202.38;;;17.83;46.09
3544;BME280;1786;52.870;9.578;2022-11-12T00:51:34;102197.13;;;17.81;45.84
3544;BME280;1786;52.870;9.578;2022-11-12T00:54:19;102202.78;;;17.77;45.88
3544;BME280;1786;52.870;9.578;2022-11-12T00:57:04;102205.63;;;17.73;45.69
3544;BME280;1786;52.870;9.578;2022-11-12T00:59:50;102207.44;;;17.73;45.93
3544;BME280;1786;52.870;9.578;2022-11-12T01:02:35;102211.41;;;17.67;45.95
3544;BME280;1786;52.870;9.578;2022-11-12T01:05:27;102215.22;;;17.63;46.32
3544;BME280;1786;52.870;9.578;2022-11-12T01:08:12;102221.56;;;17.62;46.62
3544;BME280;1786;52.870;9.578;2022-11-12T01:11:25;102217.38;;;17.71;46.09
3544;BME280;1786;52.870;9.578;2022-11-12T01:14:10;102212.34;;;17.66;46.63
3544;BME280;1786;52.870;9.578;2022-11-12T01:16:56;102200.81;;;17.66;46.53
3544;BME280;1786;52.870;9.578;2022-11-12T01:19:41;102206.28;;;17.64;46.46
3544;BME280;1786;52.870;9.578;2022-11-12T01:22:27;102196.72;;;17.60;46.36
3544;BME280;1786;52.870;9.578;2022-11-12T01:25:13;102203.78;;;17.61;46.05
3544;BME280;1786;52.870;9.578;2022-11-12T01:27:58;102205.81;;;17.58;46.13
3544;BME280;1786;52.870;9.578;2022-11-12T01:30:43;102191.06;;;17.52;46.33
3544;BME280;1786;52.870;9.578;2022-11-12T01:33:29;102200.13;;;17.49;46.33
3544;BME280;1786;52.870;9.578;2022-11-12T01:36:16;102206.31;;;17.50;45.84
3544;BME280;1786;52.870;9.578;2022-11-12T01:39:03;102198.63;;;17.45;46.32
3544;BME280;1786;52.870;9.578;2022-11-12T01:41:48;102199.69;;;17.43;46.18
3544;BME280;1786;52.870;9.578;2022-11-12T01:44:37;102206.94;;;17.41;46.14
3544;BME280;1786;52.870;9.578;2022-11-12T01:47:28;102206.19;;;17.39;45.75
3544;BME280;1786;52.870;9.578;2022-11-12T01:50:27;102213.34;;;17.38;45.95
3544;BME280;1786;52.870;9.578;2022-11-12T01:53:15;102217.78;;;17.25;45.79
3544;BME280;1786;52.870;9.578;2022-11-12T01:56:02;102213.50;;;17.22;45.89
3544;BME280;1786;52.870;9.578;2022-11-12T01:58:55;102218.63;;;17.25;45.74
3544;BME280;1786;52.870;9.578;2022-11-12T02:01:43;102212.66;;;17.22;45.63
3544;BME280;1786;52.870;9.578;2022-11-12T02:04:29;102211.78;;;17.21;45.55
3544;BME280;1786;52.870;9.578;2022-11-12T02:07:16;102210.69;;;17.11;45.91
3544;BME280;1786;52.870;9.578;2022-11-12T02:10:04;102206.84;;;17.15;45.87
3544;BME280;1786;52.870;9.578;2022-11-12T02:12:50;102211.63;;;17.10;45.73
3544;BME280;1786;52.870;9.578;2022-11-12T02:15:56;102202.97;;;17.06;45.88
3544;BME280;1786;52.870;9.578;2022-11-12T02:18:42;102208.31;;;17.06;46.01
3544;BME280;1786;52.870;9.578;2022-11-12T02:21:29;102210.91;;;16.94;46.30
3544;BME280;1786;52.870;9.578;2022-11-12T02:26:59;102204.03;;;17.04;45.65
3544;BME280;1786;52.870;9.578;2022-11-12T02:29:45;102203.16;;;17.03;46.04
3544;BME280;1786;52.870;9.578;2022-11-12T02:32:31;102213.38;;;16.97;45.90
3544;BME280;1786;52.870;9.578;2022-11-12T02:35:17;102215.19;;;16.96;45.99
3544;BME280;1786;52.870;9.578;2022-11-12T02:38:03;102212.63;;;16.95;45.98
3544;BME280;1786;52.870;9.578;2022-11-12T02:43:57;102221.19;;;16.85;46.54
3544;BME280;1786;52.870;9.578;2022-11-12T02:46:43;102219.50;;;16.84;46.69
3544;BME280;1786;52.870;9.578;2022-11-12T02:49:28;102221.31;;;16.84;46.47
3544;BME280;1786;52.870;9.578;2022-11-12T02:52:13;102216.75;;;16.86;46.50
3544;BME280;1786;52.870;9.578;2022-11-12T02:54:59;102222.66;;;16.91;46.19
3544;BME280;1786;52.870;9.578;2022-11-12T02:57:45;102220.25;;;16.86;46.24
3544;BME280;1786;52.870;9.578;2022-11-12T03:00:30;102218.53;;;16.85;46.17
3544;BME280;1786;52.870;9.578;2022-11-12T03:03:19;102228.28;;;16.86;46.61
3544;BME280;1786;52.870;9.578;2022-11-12T03:06:04;102218.72;;;16.82;46.18
3544;BME280;1786;52.870;9.578;2022-11-12T03:08:50;102225.03;;;16.81;46.33
3544;BME280;1786;52.870;9.578;2022-11-12T03:11:35;102220.25;;;16.86;46.09
3544;BME280;1786;52.870;9.578;2022-11-12T03:14:20;102215.22;;;16.82;45.92
3544;BME280;1786;52.870;9.578;2022-11-12T03:17:08;102220.75;;;16.79;46.17
3544;BME280;1786;52.870;9.578;2022-11-12T03:19:54;102220.03;;;16.75;46.22
3544;BME280;1786;52.870;9.578;2022-11-12T03:22:39;102221.78;;;16.76;46.15
3544;BME280;1786;52.870;9.578;2022-11-12T03:25:25;102220.25;;;16.72;46.08
3544;BME280;1786;52.870;9.578;2022-11-12T03:28:13;102226.25;;;16.76;45.87
3544;BME280;1786;52.870;9.578;2022-11-12T03:30:59;102230.06;;;16.72;46.02
3544;BME280;1786;52.870;9.578;2022-11-12T03:33:45;102215.88;;;16.71;46.57
3544;BME280;1786;52.870;9.578;2022-11-12T03:36:31;102216.16;;;16.66;46.22
3544;BME280;1786;52.870;9.578;2022-11-12T03:39:16;102222.16;;;16.56;46.42
3544;BME280;1786;52.870;9.578;2022-11-12T03:42:02;102213.97;;;16.59;46.07
3544;BME280;1786;52.870;9.578;2022-11-12T03:44:47;102210.03;;;16.50;46.13
3544;BME280;1786;52.870;9.578;2022-11-12T03:47:33;102210.72;;;16.54;46.50
3544;BME280;1786;52.870;9.578;2022-11-12T03:50:24;102203.84;;;16.50;46.25
3544;BME280;1786;52.870;9.578;2022-11-12T03:53:09;102206.25;;;16.54;45.95
3544;BME280;1786;52.870;9.578;2022-11-12T03:55:55;102208.34;;;16.49;45.94
3544;BME280;1786;52.870;9.578;2022-11-12T03:58:42;102216.34;;;16.49;45.96
3544;BME280;1786;52.870;9.578;2022-11-12T04:01:34;102206.81;;;16.45;46.41
3544;BME280;1786;52.870;9.578;2022-11-12T04:04:56;102199.13;;;16.40;45.96
3544;BME280;1786;52.870;9.578;2022-11-12T04:08:23;102203.00;;;16.35;46.07
3544;BME280;1786;52.870;9.578;2022-11-12T04:11:26;102203.84;;;16.35;46.15
3544;BME280;1786;52.870;9.578;2022-11-12T04:14:19;102206.50;;;16.35;46.32
3544;BME280;1786;52.870;9.578;2022-11-12T04:17:10;102210.34;;;16.31;46.26
3544;BME280;1786;52.870;9.578;2022-11-12T04:20:25;102217.56;;;16.29;46.45
3544;BME280;1786;52.870;9.578;2022-11-12T04:23:55;102219.47;;;16.27;45.97
3544;BME280;1786;52.870;9.578;2022-11-12T04:26:48;102208.22;;;16.22;46.28
3544;BME280;1786;52.870;9.578;2022-11-12T04:29:41;102203.66;;;16.24;46.14
3544;BME280;1786;52.870;9.578;2022-11-12T04:32:57;102211.47;;;16.13;46.16
3544;BME280;1786;52.870;9.578;2022-11-12T04:35:47;102203.28;;;16.16;45.96
3544;BME280;1786;52.870;9.578;2022-11-12T04:38:54;102202.31;;;16.17;46.40
3544;BME280;1786;52.870;9.578;2022-11-12T04:41:46;102209.38;;;16.18;46.01
3544;BME280;1786;52.870;9.578;2022-11-12T04:45:15;102186.50;;;16.14;46.00
3544;BME280;1786;52.870;9.578;2022-11-12T04:48:07;102188.41;;;16.12;45.70
3544;BME280;1786;52.870;9.578;2022-11-12T04:51:00;102191.19;;;16.10;46.20
3544;BME280;1786;52.870;9.578;2022-11-12T04:53:51;102192.41;;;16.05;45.79
3544;BME280;1786;52.870;9.578;2022-11-12T04:56:40;102180.88;;;16.04;46.05
3544;BME280;1786;52.870;9.578;2022-11-12T04:59:25;102194.41;;;16.01;46.05
3544;BME280;1786;52.870;9.578;2022-11-12T05:02:14;102197.88;;;15.87;46.26
3544;BME280;1786;52.870;9.578;2022-11-12T05:04:59;102197.72;;;15.90;45.82
3544;BME280;1786;52.870;9.578;2022-11-12T05:07:45;102195.91;;;15.91;46.18
3544;BME280;1786;52.870;9.578;2022-11-12T05:10:31;102203.97;;;15.75;46.46
3544;BME280;1786;52.870;9.578;2022-11-12T05:13:16;102196.81;;;15.75;46.37
3544;BME280;1786;52.870;9.578;2022-11-12T05:16:01;102192.34;;;15.76;46.34
3544;BME280;1786;52.870;9.578;2022-11-12T05:18:50;102200.16;;;15.79;46.40
3544;BME280;1786;52.870;9.578;2022-11-12T05:21:35;102202.81;;;15.79;46.17
3544;BME280;1786;52.870;9.578;2022-11-12T05:24:42;102213.28;;;15.82;46.23
3544;BME280;1786;52.870;9.578;2022-11-12T05:27:28;102215.38;;;15.77;46.42
3544;BME280;1786;52.870;9.578;2022-11-12T05:30:13;102196.63;;;15.78;46.19
3544;BME280;1786;52.870;9.578;2022-11-12T05:33:00;102207.56;;;15.74;46.11
3544;BME280;1786;52.870;9.578;2022-11-12T05:35:45;102209.63;;;15.69;46.14
3544;BME280;1786;52.870;9.578;2022-11-12T05:38:30;102202.56;;;15.68;46.24
3544;BME280;1786;52.870;9.578;2022-11-12T05:41:17;102202.50;;;15.69;46.32
3544;BME280;1786;52.870;9.578;2022-11-12T05:44:04;102211.22;;;15.41;46.79
3544;BME280;1786;52.870;9.578;2022-11-12T05:46:50;102192.72;;;15.54;46.89
3544;BME280;1786;52.870;9.578;2022-11-12T05:49:35;102192.97;;;15.49;46.85
3544;BME280;1786;52.870;9.578;2022-11-12T05:52:20;102197.78;;;15.58;46.67
3544;BME280;1786;52.870;9.578;2022-11-12T05:55:08;102198.91;;;15.54;46.82
3544;BME280;1786;52.870;9.578;2022-11-12T05:57:57;102210.91;;;15.62;46.59
3544;BME280;1786;52.870;9.578;2022-11-12T06:00:52;102209.09;;;15.62;46.63
3544;BME280;1786;52.870;9.578;2022-11-12T06:03:45;102207.31;;;15.63;46.22
3544;BME280;1786;52.870;9.578;2022-11-12T06:06:38;102211.28;;;15.55;46.10
3544;BME280;1786;52.870;9.578;2022-11-12T06:09:29;102204.81;;;15.59;46.03
3544;BME280;1786;52.870;9.578;2022-11-12T06:12:20;102223.84;;;15.22;47.12
3544;BME280;1786;52.870;9.578;2022-11-12T06:15:14;102225.75;;;15.35;47.03
3544;BME280;1786;52.870;9.578;2022-11-12T06:18:07;102217.66;;;15.37;46.85
3544;BME280;1786;52.870;9.578;2022-11-12T06:21:08;102222.47;;;15.46;46.44
3544;BME280;1786;52.870;9.578;2022-11-12T06:24:27;102226.69;;;15.50;46.79
3544;BME280;1786;52.870;9.578;2022-11-12T06:27:30;102222.47;;;15.46;46.63
3544;BME280;1786;52.870;9.578;2022-11-12T06:30:22;102220.31;;;15.53;46.55
3544;BME280;1786;52.870;9.578;2022-11-12T06:33:14;102223.84;;;15.53;46.31
3544;BME280;1786;52.870;9.578;2022-11-12T06:36:30;102222.88;;;15.54;46.42
3544;BME280;1786;52.870;9.578;2022-11-12T06:39:49;102223.84;;;15.53;46.22
3544;BME280;1786;52.870;9.578;2022-11-12T06:42:41;102224.88;;;15.51;46.00
3544;BME280;1786;52.870;9.578;2022-11-12T06:45:32;102235.22;;;15.09;46.81
3544;BME280;1786;52.870;9.578;2022-11-12T06:48:24;102228.69;;;15.31;47.13
3544;BME280;1786;52.870;9.578;2022-11-12T06:51:18;102225.06;;;15.48;46.78
3544;BME280;1786;52.870;9.578;2022-11-12T06:54:09;102227.69;;;15.64;46.45
3544;BME280;1786;52.870;9.578;2022-11-12T06:57:00;102239.53;;;15.74;46.55
3544;BME280;1786;52.870;9.578;2022-11-12T06:59:45;102232.00;;;15.50;47.08
3544;BME280;1786;52.870;9.578;2022-11-12T07:02:31;102234.13;;;15.75;46.68
3544;BME280;1786;52.870;9.578;2022-11-12T07:05:16;102237.00;;;15.87;46.51
3544;BME280;1786;52.870;9.578;2022-11-12T07:08:02;102240.19;;;15.00;48.20
3544;BME280;1786;52.870;9.578;2022-11-12T07:10:48;102242.69;;;15.19;48.06
3544;BME280;1786;52.870;9.578;2022-11-12T07:13:34;102242.22;;;15.74;47.28
3544;BME280;1786;52.870;9.578;2022-11-12T07:16:20;102259.28;;;16.16;47.22
3544;BME280;1786;52.870;9.578;2022-11-12T07:19:06;102267.44;;;15.98;47.76
3544;BME280;1786;52.870;9.578;2022-11-12T07:21:51;102252.34;;;16.28;47.83
3544;BME280;1786;52.870;9.578;2022-11-12T07:24:37;102253.03;;;16.60;47.26
3544;BME280;1786;52.870;9.578;2022-11-12T07:27:22;102256.22;;;16.81;46.90
3544;BME280;1786;52.870;9.578;2022-11-12T07:30:08;102259.16;;;16.91;47.25
3544;BME280;1786;52.870;9.578;2022-11-12T07:32:56;102259.75;;;17.23;47.20
3544;BME280;1786;52.870;9.578;2022-11-12T07:35:41;102271.38;;;17.63;47.00
3544;BME280;1786;52.870;9.578;2022-11-12T07:38:28;102283.50;;;18.22;47.61
3544;BME280;1786;52.870;9.578;2022-11-12T07:41:18;102268.50;;;19.70;46.52
3544;BME280;1786;52.870;9.578;2022-11-12T07:44:04;102280.56;;;21.25;44.01
3544;BME280;1786;52.870;9.578;2022-11-12T07:46:49;102292.47;;;22.19;41.75
3544;BME280;1786;52.870;9.578;2022-11-12T07:49:34;102295.84;;;22.53;40.60
3544;BME280;1786;52.870;9.578;2022-11-12T07:52:20;102283.94;;;22.56;41.76
3544;BME280;1786;52.870;9.578;2022-11-12T07:55:05;102285.94;;;23.35;41.26
3544;BME280;1786;52.870;9.578;2022-11-12T07:57:51;102297.94;;;24.10;40.20
3544;BME280;1786;52.870;9.578;2022-11-12T08:00:52;102313.81;;;24.32;38.36
3544;BME280;1786;52.870;9.578;2022-11-12T08:03:47;102318.00;;;25.39;39.19
3544;BME280;1786;52.870;9.578;2022-11-12T08:06:36;102303.22;;;26.49;37.50
3544;BME280;1786;52.870;9.578;2022-11-12T08:09:28;102307.72;;;27.35;37.25
3544;BME280;1786;52.870;9.578;2022-11-12T08:12:21;102304.03;;;28.42;35.83
3544;BME280;1786;52.870;9.578;2022-11-12T08:15:14;102317.19;;;28.95;35.61
3544;BME280;1786;52.870;9.578;2022-11-12T08:18:07;102332.31;;;29.91;34.02
3544;BME280;1786;52.870;9.578;2022-11-12T08:21:01;102331.22;;;30.00;33.00
3544;BME280;1786;52.870;9.578;2022-11-12T08:24:03;102314.63;;;29.32;34.64
3544;BME280;1786;52.870;9.578;2022-11-12T08:26:55;102313.88;;;29.47;34.53
3544;BME280;1786;52.870;9.578;2022-11-12T08:29:47;102307.47;;;29.63;34.16
3544;BME280;1786;52.870;9.578;2022-11-12T08:32:39;102318.34;;;29.94;34.65
3544;BME280;1786;52.870;9.578;2022-11-12T08:35:32;102331.19;;;30.23;33.84
3544;BME280;1786;52.870;9.578;2022-11-12T08:38:25;102321.66;;;30.72;34.38
3544;BME280;1786;52.870;9.578;2022-11-12T08:41:26;102318.31;;;31.51;33.38
3544;BME280;1786;52.870;9.578;2022-11-12T08:44:21;102326.38;;;32.23;32.30
3544;BME280;1786;52.870;9.578;2022-11-12T08:47:23;102334.06;;;32.69;31.71
3544;BME280;1786;52.870;9.578;2022-11-12T08:50:29;102334.16;;;32.26;31.57
3544;BME280;1786;52.870;9.578;2022-11-12T08:53:23;102334.88;;;31.13;32.62
3544;BME280;1786;52.870;9.578;2022-11-12T08:56:23;102332.03;;;30.24;33.06
3544;BME280;1786;52.870;9.578;2022-11-12T08:59:16;102321.63;;;29.58;34.60
3544;BME280;1786;52.870;9.578;2022-11-12T09:02:11;102310.22;;;28.20;34.90
3544;BME280;1786;52.870;9.578;2022-11-12T09:05:00;102310.84;;;27.73;35.88
3544;BME280;1786;52.870;9.578;2022-11-12T09:08:06;102309.06;;;27.23;36.34
3544;BME280;1786;52.870;9.578;2022-11-12T09:11:35;102292.69;;;26.64;37.26
3544;BME280;1786;52.870;9.578;2022-11-12T09:14:40;102300.03;;;26.27;37.75
3544;BME280;1786;52.870;9.578;2022-11-12T09:17:32;102305.34;;;26.11;37.84
3544;BME280;1786;52.870;9.578;2022-11-12T09:20:23;102302.91;;;26.26;38.23
3544;BME280;1786;52.870;9.578;2022-11-12T09:23:16;102294.78;;;26.52;37.43
3544;BME280;1786;52.870;9.578;2022-11-12T09:26:08;102289.28;;;27.04;37.03
3544;BME280;1786;52.870;9.578;2022-11-12T09:29:00;102291.09;;;27.30;37.20
3544;BME280;1786;52.870;9.578;2022-11-12T09:31:53;102295.09;;;27.93;36.59
3544;BME280;1786;52.870;9.578;2022-11-12T09:35:09;102292.06;;;28.84;36.10
3544;BME280;1786;52.870;9.578;2022-11-12T09:37:59;102299.84;;;29.58;35.08
3544;BME280;1786;52.870;9.578;2022-11-12T09:41:31;102312.47;;;30.20;34.42
3544;BME280;1786;52.870;9.578;2022-11-12T09:44:37;102311.06;;;30.62;33.68
3544;BME280;1786;52.870;9.578;2022-11-12T09:47:53;102311.72;;;30.49;33.35
3544;BME280;1786;52.870;9.578;2022-11-12T09:51:33;102309.03;;;30.03;33.77
3544;BME280;1786;52.870;9.578;2022-11-12T09:54:34;102311.56;;;29.67;34.59
3544;BME280;1786;52.870;9.578;2022-11-12T09:57:19;102307.63;;;29.38;34.52
3544;BME280;1786;52.870;9.578;2022-11-12T10:00:18;102306.84;;;29.29;34.89
3544;BME280;1786;52.870;9.578;2022-11-12T10:03:13;102307.00;;;28.88;35.44
3544;BME280;1786;52.870;9.578;2022-11-12T10:06:16;102308.66;;;28.50;35.25
3544;BME280;1786;52.870;9.578;2022-11-12T10:09:16;102313.09;;;28.10;36.04
3544;BME280;1786;52.870;9.578;2022-11-12T10:12:21;102309.88;;;27.98;36.54
3544;BME280;1786;52.870;9.578;2022-11-12T10:21:57;102306.94;;;27.08;37.17
3544;BME280;1786;52.870;9.578;2022-11-12T10:24:47;102308.41;;;26.94;37.72
3544;BME280;1786;52.870;9.578;2022-11-12T10:27:37;102311.38;;;26.75;38.09
3544;BME280;1786;52.870;9.578;2022-11-12T10:30:24;102312.88;;;26.69;38.42
3544;BME280;1786;52.870;9.578;2022-11-12T10:33:13;102312.88;;;26.69;38.51
3544;BME280;1786;52.870;9.578;2022-11-12T10:36:16;102310.47;;;26.66;38.63
3544;BME280;1786;52.870;9.578;2022-11-12T10:39:03;102311.59;;;26.55;38.88
3544;BME280;1786;52.870;9.578;2022-11-12T10:42:01;102325.34;;;26.36;38.75
3544;BME280;1786;52.870;9.578;2022-11-12T10:44:48;102329.09;;;26.43;38.76
3544;BME280;1786;52.870;9.578;2022-11-12T10:47:37;102318.81;;;26.47;39.08
3544;BME280;1786;52.870;9.578;2022-11-12T10:50:41;102315.66;;;25.89;40.20
3544;BME280;1786;52.870;9.578;2022-11-12T10:53:38;102311.53;;;25.85;40.18
3544;BME280;1786;52.870;9.578;2022-11-12T10:56:30;102305.38;;;25.47;40.49
3544;BME280;1786;52.870;9.578;2022-11-12T10:59:18;102307.91;;;25.03;41.04
3544;BME280;1786;52.870;9.578;2022-11-12T11:02:15;102306.69;;;25.25;40.81
3544;BME280;1786;52.870;9.578;2022-11-12T11:08:30;102297.88;;;24.86;42.00
3544;BME280;1786;52.870;9.578;2022-11-12T11:11:30;102299.78;;;24.76;42.80
3544;BME280;1786;52.870;9.578;2022-11-12T11:17:15;102300.81;;;25.02;41.68
3544;BME280;1786;52.870;9.578;2022-11-12T11:20:03;102295.50;;;25.38;41.31
3544;BME280;1786;52.870;9.578;2022-11-12T11:23:03;102295.09;;;25.33;41.33
3544;BME280;1786;52.870;9.578;2022-11-12T11:25:52;102293.13;;;25.53;41.71
3544;BME280;1786;52.870;9.578;2022-11-12T11:28:46;102290.41;;;25.71;41.56
3544;BME280;1786;52.870;9.578;2022-11-12T11:34:45;102277.31;;;25.84;41.66
3544;BME280;1786;52.870;9.578;2022-11-12T11:37:41;102275.53;;;25.75;41.12
3544;BME280;1786;52.870;9.578;2022-11-12T11:40:36;102276.88;;;25.71;41.34
3544;BME280;1786;52.870;9.578;2022-11-12T11:43:32;102273.72;;;25.58;41.76
3544;BME280;1786;52.870;9.578;2022-11-12T11:46:54;102276.31;;;25.50;42.31
3544;BME280;1786;52.870;9.578;2022-11-12T11:55:48;102276.94;;;25.97;41.06
3544;BME280;1786;52.870;9.578;2022-11-12T11:58:47;102281.25;;;26.08;40.81
3544;BME280;1786;52.870;9.578;2022-11-12T12:01:49;102275.53;;;26.11;41.33
3544;BME280;1786;52.870;9.578;2022-11-12T12:14:05;102254.56;;;25.77;42.29
3544;BME280;1786;52.870;9.578;2022-11-12T12:17:14;102254.13;;;25.64;42.37
3544;BME280;1786;52.870;9.578;2022-11-12T12:20:20;102255.03;;;25.73;42.05
3544;BME280;1786;52.870;9.578;2022-11-12T12:23:26;102252.72;;;25.60;42.30
3544;BME280;1786;52.870;9.578;2022-11-12T12:26:17;102239.00;;;25.79;42.63
3544;BME280;1786;52.870;9.578;2022-11-12T12:29:26;102236.84;;;25.83;42.33
3544;BME280;1786;52.870;9.578;2022-11-12T12:32:20;102240.88;;;25.97;42.03
3544;BME280;1786;52.870;9.578;2022-11-12T12:42:14;102229.59;;;25.83;41.66
3544;BME280;1786;52.870;9.578;2022-11-12T12:48:42;102226.13;;;25.91;41.09
3544;BME280;1786;52.870;9.578;2022-11-12T12:51:30;102218.13;;;25.72;41.77
3544;BME280;1786;52.870;9.578;2022-11-12T12:57:35;102209.81;;;26.43;41.65
3544;BME280;1786;52.870;9.578;2022-11-12T13:00:36;102208.34;;;26.23;40.44
3544;BME280;1786;52.870;9.578;2022-11-12T13:06:50;102202.47;;;26.27;40.71
3544;BME280;1786;52.870;9.578;2022-11-12T13:09:37;102200.88;;;26.51;40.30
3544;BME280;1786;52.870;9.578;2022-11-12T13:15:51;102209.03;;;26.93;39.16
3544;BME280;1786;52.870;9.578;2022-11-12T13:21:27;102201.69;;;26.43;39.59
3544;BME280;1786;52.870;9.578;2022-11-12T13:24:12;102192.38;;;26.72;39.80
3544;BME280;1786;52.870;9.578;2022-11-12T13:26:58;102196.34;;;26.94;40.03
3544;BME280;1786;52.870;9.578;2022-11-12T13:29:46;102197.34;;;27.01;39.05
3544;BME280;1786;52.870;9.578;2022-11-12T13:35:37;102197.16;;;26.52;39.97
3544;BME280;1786;52.870;9.578;2022-11-12T13:38:24;102194.28;;;26.96;39.21
3544;BME280;1786;52.870;9.578;2022-11-12T13:41:13;102190.25;;;26.58;39.49
3544;BME280;1786;52.870;9.578;2022-11-12T13:44:04;102198.03;;;27.03;39.03
3544;BME280;1786;52.870;9.578;2022-11-12T13:46:50;102202.63;;;27.11;38.94
3544;BME280;1786;52.870;9.578;2022-11-12T13:49:37;102204.59;;;27.68;38.71
3544;BME280;1786;52.870;9.578;2022-11-12T13:52:22;102195.06;;;27.80;38.32
3544;BME280;1786;52.870;9.578;2022-11-12T13:55:17;102198.28;;;27.51;38.08
3544;BME280;1786;52.870;9.578;2022-11-12T13:58:02;102198.47;;;27.57;38.88
3544;BME280;1786;52.870;9.578;2022-11-12T14:00:52;102188.28;;;27.59;38.81
3544;BME280;1786;52.870;9.578;2022-11-12T14:03:48;102181.81;;;27.77;39.11
3544;BME280;1786;52.870;9.578;2022-11-12T14:06:36;102186.44;;;27.60;38.55
3544;BME280;1786;52.870;9.578;2022-11-12T14:09:34;102182.66;;;27.28;39.33
3544;BME280;1786;52.870;9.578;2022-11-12T14:15:41;102175.44;;;26.44;39.96
3544;BME280;1786;52.870;9.578;2022-11-12T14:18:54;102178.31;;;26.76;39.11
3544;BME280;1786;52.870;9.578;2022-11-12T14:22:14;102179.50;;;26.48;39.47
3544;BME280;1786;52.870;9.578;2022-11-12T14:25:01;102178.63;;;26.31;40.19
3544;BME280;1786;52.870;9.578;2022-11-12T14:27:48;102169.88;;;26.11;40.57
3544;BME280;1786;52.870;9.578;2022-11-12T14:30:42;102168.81;;;26.04;40.76
3544;BME280;1786;52.870;9.578;2022-11-12T14:33:30;102190.69;;;25.66;40.74
3544;BME280;1786;52.870;9.578;2022-11-12T14:36:17;102188.13;;;25.11;41.55
3544;BME280;1786;52.870;9.578;2022-11-12T14:39:03;102174.13;;;24.52;43.04
3544;BME280;1786;52.870;9.578;2022-11-12T14:41:48;102180.47;;;25.07;42.05
3544;BME280;1786;52.870;9.578;2022-11-12T14:44:35;102178.78;;;25.05;41.82
3544;BME280;1786;52.870;9.578;2022-11-12T14:47:22;102167.31;;;24.38;43.11
3544;BME280;1786;52.870;9.578;2022-11-12T14:50:22;102164.47;;;24.40;43.26
3544;BME280;1786;52.870;9.578;2022-11-12T14:53:26;102162.84;;;23.72;44.52
3544;BME280;1786;52.870;9.578;2022-11-12T14:56:31;102165.91;;;23.97;43.65
3544;BME280;1786;52.870;9.578;2022-11-12T14:59:20;102162.28;;;24.16;43.94
3544;BME280;1786;52.870;9.578;2022-11-12T15:02:15;102167.13;;;24.59;43.41
3544;BME280;1786;52.870;9.578;2022-11-12T15:05:21;102175.66;;;24.82;43.05
3544;BME280;1786;52.870;9.578;2022-11-12T15:08:10;102169.72;;;25.15;42.56
3544;BME280;1786;52.870;9.578;2022-11-12T15:11:12;102173.53;;;25.22;41.92
3544;BME280;1786;52.870;9.578;2022-11-12T15:14:10;102179.19;;;25.46;42.02
3544;BME280;1786;52.870;9.578;2022-11-12T15:16:57;102188.69;;;25.51;41.67
3544;BME280;1786;52.870;9.578;2022-11-12T15:19:44;102189.09;;;25.56;41.55
3544;BME280;1786;52.870;9.578;2022-11-12T15:22:31;102194.69;;;25.62;41.33
3544;BME280;1786;52.870;9.578;2022-11-12T15:25:22;102186.75;;;25.61;41.56
3544;BME280;1786;52.870;9.578;2022-11-12T15:28:21;102182.28;;;25.52;41.14
3544;BME280;1786;52.870;9.578;2022-11-12T15:31:16;102188.94;;;25.39;41.57
3544;BME280;1786;52.870;9.578;2022-11-12T15:37:24;102175.63;;;25.10;41.39
3544;BME280;1786;52.870;9.578;2022-11-12T15:40:17;102169.88;;;24.95;41.63
3544;BME280;1786;52.870;9.578;2022-11-12T15:43:13;102168.53;;;24.81;41.77
3544;BME280;1786;52.870;9.578;2022-11-12T15:46:00;102177.09;;;24.77;41.84
3544;BME280;1786;52.870;9.578;2022-11-12T15:48:45;102178.13;;;24.48;42.51
3544;BME280;1786;52.870;9.578;2022-11-12T15:51:37;102174.47;;;24.30;42.56
3544;BME280;1786;52.870;9.578;2022-11-12T15:54:22;102168.09;;;24.21;42.79
3544;BME280;1786;52.870;9.578;2022-11-12T15:57:12;102162.03;;;24.09;43.05
3544;BME280;1786;52.870;9.578;2022-11-12T16:00:03;102162.91;;;24.00;43.04
3544;BME280;1786;52.870;9.578;2022-11-12T16:05:55;102165.41;;;23.74;42.80
3544;BME280;1786;52.870;9.578;2022-11-12T16:08:40;102165.94;;;23.58;42.22
3544;BME280;1786;52.870;9.578;2022-11-12T16:11:25;102161.13;;;23.42;43.07
3544;BME280;1786;52.870;9.578;2022-11-12T16:14:19;102154.31;;;23.38;42.88
3544;BME280;1786;52.870;9.578;2022-11-12T16:17:14;102161.53;;;23.18;43.70
3544;BME280;1786;52.870;9.578;2022-11-12T16:19:59;102160.97;;;23.05;43.75
3544;BME280;1786;52.870;9.578;2022-11-12T16:22:49;102161.53;;;22.99;43.85
3544;BME280;1786;52.870;9.578;2022-11-12T16:25:36;102166.28;;;22.85;43.62
3544;BME280;1786;52.870;9.578;2022-11-12T16:28:22;102164.28;;;22.68;43.74
3544;BME280;1786;52.870;9.578;2022-11-12T16:31:07;102162.00;;;22.63;43.56
3544;BME280;1786;52.870;9.578;2022-11-12T16:33:52;102164.66;;;22.54;44.02
3544;BME280;1786;52.870;9.578;2022-11-12T16:36:38;102163.50;;;22.46;44.11